I67

Cincinnati West Airport

Harrison, Ohio, USA
METAR KI67 210355Z AUTO 00000KT 10SM CLR 04/00 A3041 RMK AO1
Observed Flight Rules
Apr-21 @ 03:55 UTC (7 minutes ago) Visual Flight Rules
Visibility Clouds
10 miles
  • Clear skies
Temperatures Readings
Current 4°C / 39°F
Dewpoint 0°C / 32°F
Humidity 75%
Altimeter 30.41" Hg
Pressure 1030 hPa
Elevation 178
METAR KI67 210355Z AUTO 00000KT 10SM CLR 04/00 A3041 RMK AO1
Observed Flight Rules
Apr-21 @ 03:55 UTC
(7 minutes ago)
VFR
Clouds
  • Clear skies
Temperature Dewpoint
4°C / 39°F 0°C / 32°F
Humidity Altimeter Pressure
75% 30.41" Hg 1030 hPa